createdAt,value
2023-10-20T00:02:05.052Z,15.30
2023-10-20T00:04:32.770Z,15.30
2023-10-20T00:07:00.549Z,15.30
2023-10-20T00:09:28.014Z,15.30
2023-10-20T00:11:55.617Z,15.30
2023-10-20T00:14:23.141Z,15.30
2023-10-20T00:16:50.687Z,15.40
2023-10-20T00:19:20.005Z,15.40
2023-10-20T00:21:47.516Z,15.30
2023-10-20T00:24:15.007Z,15.70
2023-10-20T00:26:42.409Z,15.30
2023-10-20T00:29:10.670Z,15.30
2023-10-20T00:31:39.781Z,15.50
2023-10-20T00:34:07.311Z,15.30
2023-10-20T00:36:34.762Z,15.30
2023-10-20T00:39:03.607Z,15.30
2023-10-20T00:41:31.088Z,15.30
2023-10-20T00:43:58.803Z,15.30
2023-10-20T00:46:26.196Z,15.30
2023-10-20T00:48:54.046Z,15.30
2023-10-20T00:51:21.557Z,15.40
2023-10-20T00:53:49.021Z,15.30
2023-10-20T00:56:17.983Z,15.30
2023-10-20T00:58:45.473Z,15.30
2023-10-20T01:01:13.960Z,15.30
2023-10-20T01:03:41.608Z,15.30
2023-10-20T01:06:12.128Z,15.30
2023-10-20T01:08:40.894Z,15.30
2023-10-20T01:11:08.429Z,15.30
2023-10-20T01:13:37.477Z,15.30
2023-10-20T01:16:05.259Z,15.20
2023-10-20T01:18:33.544Z,15.30
2023-10-20T01:21:02.578Z,15.20
2023-10-20T01:23:30.111Z,15.50
2023-10-20T01:25:58.142Z,15.30
2023-10-20T01:28:25.609Z,15.20
2023-10-20T01:30:53.472Z,15.20
2023-10-20T01:33:20.989Z,15.20
2023-10-20T01:35:48.444Z,15.20
2023-10-20T01:38:15.900Z,15.20
2023-10-20T01:40:46.292Z,15.10
2023-10-20T01:43:13.795Z,15.20
2023-10-20T01:45:41.186Z,15.20
2023-10-20T01:48:08.682Z,15.90
2023-10-20T01:50:36.574Z,15.30
2023-10-20T01:53:05.468Z,15.10
2023-10-20T01:55:33.413Z,15.10
2023-10-20T01:58:00.940Z,15.20
2023-10-20T02:00:28.432Z,15.40
2023-10-20T02:02:56.053Z,14.60
2023-10-20T02:05:24.155Z,15.10
2023-10-20T02:07:51.633Z,15.00
2023-10-20T02:10:19.073Z,15.10
2023-10-20T02:12:46.526Z,15.00
2023-10-20T02:15:15.060Z,14.90
2023-10-20T02:17:42.729Z,14.90
2023-10-20T02:20:10.870Z,14.90
2023-10-20T02:22:38.473Z,14.90
2023-10-20T02:25:06.491Z,14.80
2023-10-20T02:27:33.892Z,14.80
2023-10-20T02:30:01.286Z,16.20
2023-10-20T02:32:28.811Z,14.80
2023-10-20T02:34:56.253Z,14.80
2023-10-20T02:37:23.766Z,14.70
2023-10-20T02:39:51.240Z,14.70
2023-10-20T02:42:18.641Z,14.70
2023-10-20T02:44:46.081Z,14.60
2023-10-20T02:47:13.667Z,14.60
2023-10-20T02:49:41.392Z,14.60
2023-10-20T02:52:08.844Z,14.90
2023-10-20T02:54:36.227Z,14.40
2023-10-20T02:57:08.491Z,14.50
2023-10-20T02:59:36.086Z,14.40
2023-10-20T03:02:03.541Z,14.90
2023-10-20T03:04:31.399Z,14.30
2023-10-20T03:06:58.879Z,14.30
2023-10-20T03:09:27.149Z,14.70
2023-10-20T03:11:54.717Z,14.20
2023-10-20T03:14:22.438Z,14.20
2023-10-20T03:16:49.929Z,14.10
2023-10-20T03:19:17.386Z,14.00
2023-10-20T03:21:44.835Z,14.10
2023-10-20T03:24:12.408Z,14.00
2023-10-20T03:26:39.983Z,13.90
2023-10-20T03:29:08.531Z,14.20
2023-10-20T03:31:37.127Z,13.90
2023-10-20T03:34:04.687Z,13.90
2023-10-20T03:36:32.120Z,13.90
2023-10-20T03:38:59.877Z,13.80
2023-10-20T03:41:30.457Z,13.80
2023-10-20T03:43:57.886Z,13.80
2023-10-20T03:46:26.860Z,13.80
2023-10-20T03:48:54.736Z,13.80
2023-10-20T03:51:22.586Z,12.60
2023-10-20T03:53:53.722Z,13.60
2023-10-20T03:56:23.553Z,13.50
2023-10-20T03:58:51.134Z,14.20
2023-10-20T04:01:18.637Z,13.80
2023-10-20T04:03:50.863Z,13.50
2023-10-20T04:06:18.580Z,14.50
2023-10-20T04:08:46.369Z,13.50
2023-10-20T04:11:14.044Z,14.10
2023-10-20T04:13:41.611Z,13.40
2023-10-20T04:16:14.256Z,13.40
2023-10-20T04:18:43.191Z,13.30
2023-10-20T04:21:13.023Z,13.60
2023-10-20T04:23:41.930Z,13.20
2023-10-20T04:26:22.604Z,13.40
2023-10-20T04:29:09.950Z,13.20
2023-10-20T04:31:55.770Z,13.80
2023-10-20T04:34:41.939Z,13.60
2023-10-20T04:37:28.149Z,13.10
2023-10-20T04:40:14.559Z,13.50
2023-10-20T04:42:42.053Z,13.00
2023-10-20T04:45:24.805Z,13.00
2023-10-20T04:48:14.780Z,13.00
2023-10-20T04:51:09.602Z,13.00
2023-10-20T04:53:37.139Z,12.90
2023-10-20T04:56:17.544Z,13.10
2023-10-20T04:58:59.655Z,12.90
2023-10-20T05:01:41.231Z,13.00
2023-10-20T05:04:32.931Z,13.00
2023-10-20T05:07:06.665Z,13.00
2023-10-20T05:09:37.113Z,12.90
2023-10-20T05:12:04.639Z,13.00
2023-10-20T05:14:32.126Z,13.00
2023-10-20T05:16:59.716Z,12.90
2023-10-20T05:19:32.632Z,12.90
2023-10-20T05:22:00.730Z,13.70
2023-10-20T05:24:28.313Z,12.90
2023-10-20T05:26:55.731Z,13.20
2023-10-20T05:29:23.193Z,12.70
2023-10-20T05:31:50.652Z,13.30
2023-10-20T05:34:19.189Z,12.90
2023-10-20T05:36:46.647Z,13.00
2023-10-20T05:39:15.536Z,12.70
2023-10-20T05:41:45.162Z,12.60
2023-10-20T05:44:13.677Z,13.90
2023-10-20T05:46:42.483Z,14.10
2023-10-20T05:49:10.007Z,12.70
2023-10-20T05:51:37.643Z,12.80
2023-10-20T05:54:05.107Z,12.70
2023-10-20T05:56:32.635Z,12.70
2023-10-20T05:59:00.413Z,12.70
2023-10-20T06:01:27.927Z,12.70
2023-10-20T06:03:55.475Z,12.60
2023-10-20T06:06:22.982Z,12.90
2023-10-20T06:08:51.066Z,12.50
2023-10-20T06:11:18.642Z,13.90
2023-10-20T06:13:46.165Z,12.70
2023-10-20T06:16:14.230Z,12.40
2023-10-20T06:18:43.710Z,12.50
2023-10-20T06:21:15.852Z,12.40
2023-10-20T06:23:44.168Z,12.60
2023-10-20T06:26:11.987Z,12.30
2023-10-20T06:28:39.710Z,12.30
2023-10-20T06:31:25.490Z,12.30
2023-10-20T06:34:01.256Z,12.20
2023-10-20T06:36:28.976Z,12.20
2023-10-20T06:38:56.390Z,12.20
2023-10-20T06:41:25.189Z,12.20
2023-10-20T06:43:52.641Z,12.30
2023-10-20T06:46:23.341Z,12.20
2023-10-20T06:48:50.902Z,12.20
2023-10-20T06:51:18.419Z,12.20
2023-10-20T06:53:45.960Z,12.60
2023-10-20T06:56:15.852Z,12.20
2023-10-20T06:58:44.686Z,12.30
2023-10-20T07:01:13.594Z,13.50
2023-10-20T07:03:42.110Z,11.40
2023-10-20T07:06:12.233Z,12.20
2023-10-20T07:08:40.043Z,12.10
2023-10-20T07:11:07.976Z,12.10
2023-10-20T07:13:35.553Z,12.10
2023-10-20T07:16:03.256Z,12.00
2023-10-20T07:18:30.834Z,11.90
2023-10-20T07:20:59.059Z,11.90
2023-10-20T07:23:27.330Z,12.70
2023-10-20T07:25:55.003Z,11.90
2023-10-20T07:28:23.220Z,13.40
2023-10-20T07:30:52.044Z,11.90
2023-10-20T07:33:19.610Z,11.90
2023-10-20T07:35:47.209Z,12.00
2023-10-20T07:38:14.757Z,12.00
2023-10-20T07:40:42.290Z,11.80
2023-10-20T07:43:09.744Z,11.80
2023-10-20T07:45:43.924Z,12.00
2023-10-20T07:48:12.258Z,12.20
2023-10-20T07:50:41.185Z,11.80
2023-10-20T07:53:10.342Z,11.80
2023-10-20T07:55:38.351Z,11.80
2023-10-20T07:58:05.887Z,11.80
2023-10-20T08:00:33.322Z,11.80
2023-10-20T08:03:01.495Z,11.70
2023-10-20T08:05:30.391Z,11.70
2023-10-20T08:08:02.880Z,11.80
2023-10-20T08:10:30.285Z,11.70
2023-10-20T08:12:57.965Z,11.70
2023-10-20T08:15:29.013Z,11.70
2023-10-20T08:17:57.057Z,11.60
2023-10-20T08:20:24.917Z,11.50
2023-10-20T08:22:52.629Z,11.80
2023-10-20T08:25:20.249Z,11.50
2023-10-20T08:27:52.109Z,11.50
2023-10-20T08:30:22.853Z,11.60
2023-10-20T08:32:51.214Z,11.50
2023-10-20T08:35:18.917Z,11.50
2023-10-20T08:37:46.402Z,11.50
2023-10-20T08:40:14.143Z,11.50
2023-10-20T08:42:41.835Z,11.50
2023-10-20T08:45:13.721Z,11.40
2023-10-20T08:47:44.692Z,11.40
2023-10-20T08:50:17.565Z,12.10
2023-10-20T08:52:46.318Z,11.30
2023-10-20T08:55:14.607Z,11.80
2023-10-20T08:57:42.323Z,11.30
2023-10-20T09:00:20.422Z,12.60
2023-10-20T09:02:49.223Z,11.20
2023-10-20T09:05:23.447Z,11.20
2023-10-20T09:07:57.629Z,11.30
2023-10-20T09:10:25.382Z,11.20
2023-10-20T09:12:54.062Z,11.10
2023-10-20T09:15:22.377Z,11.40
2023-10-20T09:17:54.665Z,11.20
2023-10-20T09:20:22.400Z,11.10
2023-10-20T09:22:50.315Z,11.00
2023-10-20T09:25:17.881Z,11.00
2023-10-20T09:27:47.552Z,11.00
2023-10-20T09:30:16.356Z,11.10
2023-10-20T09:32:44.000Z,11.70
2023-10-20T09:35:12.092Z,11.40
2023-10-20T09:37:42.405Z,11.60
2023-10-20T09:40:12.087Z,11.10
2023-10-20T09:43:14.878Z,11.10
2023-10-20T09:46:04.683Z,10.90
2023-10-20T09:48:35.255Z,11.10
2023-10-20T09:51:03.525Z,11.00
2023-10-20T09:53:31.432Z,11.10
2023-10-20T09:55:59.137Z,12.80
2023-10-20T09:58:27.911Z,11.00
2023-10-20T10:00:58.761Z,10.80
2023-10-20T10:03:41.979Z,11.30
2023-10-20T10:06:17.215Z,11.30
2023-10-20T10:08:45.608Z,11.10
2023-10-20T10:11:28.949Z,9.50
2023-10-20T10:14:02.340Z,9.70
2023-10-20T10:16:31.263Z,11.40
2023-10-20T10:19:13.483Z,11.30
2023-10-20T10:21:51.028Z,10.70
2023-10-20T10:24:24.222Z,12.50
2023-10-20T10:26:55.591Z,10.80
2023-10-20T10:29:55.876Z,11.00
2023-10-20T10:32:26.296Z,10.60
2023-10-20T10:34:56.849Z,10.80
2023-10-20T10:37:36.997Z,10.80
2023-10-20T10:40:15.018Z,10.90
2023-10-20T10:42:49.646Z,11.60
2023-10-20T10:45:35.538Z,12.20
2023-10-20T10:48:11.611Z,10.60
2023-10-20T10:50:43.691Z,10.60
2023-10-20T10:53:14.105Z,10.70
2023-10-20T10:55:42.706Z,10.60
2023-10-20T10:58:13.808Z,10.60
2023-10-20T11:00:46.030Z,11.10
2023-10-20T11:03:17.617Z,10.60
2023-10-20T11:05:45.636Z,10.80
2023-10-20T11:08:17.208Z,10.70
2023-10-20T11:10:50.417Z,10.60
2023-10-20T11:13:21.736Z,11.50
2023-10-20T11:15:51.146Z,13.00
2023-10-20T11:18:21.776Z,10.60
2023-10-20T11:20:50.777Z,10.60
2023-10-20T11:23:32.018Z,10.50
2023-10-20T11:25:59.890Z,10.50
2023-10-20T11:28:30.711Z,11.30
2023-10-20T11:31:02.687Z,10.90
2023-10-20T11:33:30.467Z,10.60
2023-10-20T11:36:01.496Z,11.60
2023-10-20T11:38:33.450Z,10.50
2023-10-20T11:41:03.744Z,10.50
2023-10-20T11:43:34.482Z,10.60
2023-10-20T11:46:02.120Z,11.20
2023-10-20T11:48:30.900Z,10.60
2023-10-20T11:50:58.674Z,10.70
2023-10-20T11:53:26.338Z,10.70
2023-10-20T11:55:54.038Z,11.30
2023-10-20T11:58:23.717Z,11.60
2023-10-20T12:00:51.322Z,10.90
2023-10-20T12:03:19.187Z,11.70
2023-10-20T12:05:49.952Z,10.80
2023-10-20T12:08:18.497Z,10.50
2023-10-20T12:10:49.429Z,10.50
2023-10-20T12:13:22.909Z,11.40
2023-10-20T12:15:55.617Z,10.60
2023-10-20T12:18:33.702Z,11.40
2023-10-20T12:21:14.527Z,10.70
2023-10-20T12:24:01.970Z,12.60
2023-10-20T12:26:38.262Z,10.60
2023-10-20T12:29:05.945Z,9.70
2023-10-20T12:31:33.926Z,10.60
2023-10-20T12:34:01.732Z,11.40
2023-10-20T12:36:32.860Z,9.10
2023-10-20T12:39:02.810Z,10.90
2023-10-20T12:41:33.390Z,11.10
2023-10-20T12:44:00.932Z,11.40
2023-10-20T12:46:33.182Z,11.30
2023-10-20T12:49:03.505Z,10.10
2023-10-20T12:51:31.853Z,11.10
2023-10-20T12:54:03.820Z,11.10
2023-10-20T12:56:36.414Z,10.70
2023-10-20T12:59:04.704Z,10.90
2023-10-20T13:01:32.542Z,10.80
2023-10-20T13:04:00.805Z,10.70
2023-10-20T13:06:28.516Z,10.90
2023-10-20T13:08:57.315Z,13.00
2023-10-20T13:11:25.251Z,11.10
2023-10-20T13:13:52.754Z,11.50
2023-10-20T13:16:20.197Z,11.70
2023-10-20T13:18:52.587Z,10.40
2023-10-20T13:21:22.686Z,10.80
2023-10-20T13:23:58.699Z,12.10
2023-10-20T13:26:26.512Z,10.70
2023-10-20T13:28:54.115Z,12.20
2023-10-20T13:31:25.627Z,11.20
2023-10-20T13:33:53.468Z,11.50
2023-10-20T13:36:21.095Z,11.00
2023-10-20T13:38:49.631Z,11.40
2023-10-20T13:41:17.742Z,10.80
2023-10-20T13:43:47.288Z,10.90
2023-10-20T13:46:14.980Z,12.60
2023-10-20T13:48:52.294Z,11.20
2023-10-20T13:51:24.997Z,11.10
2023-10-20T13:54:35.078Z,10.90
2023-10-20T13:57:02.913Z,10.90
2023-10-20T13:59:37.281Z,11.30
2023-10-20T14:02:05.203Z,10.90
2023-10-20T14:04:34.118Z,11.10
2023-10-20T14:07:04.632Z,11.10
2023-10-20T14:09:39.704Z,11.00
2023-10-20T14:12:07.638Z,11.20
2023-10-20T14:14:37.880Z,10.40
2023-10-20T14:17:10.823Z,11.20
2023-10-20T14:19:39.222Z,11.40
2023-10-20T14:22:10.824Z,13.70
2023-10-20T14:24:38.724Z,11.30
2023-10-20T14:27:08.613Z,11.00
2023-10-20T14:29:38.448Z,11.20
2023-10-20T14:32:08.838Z,11.70
2023-10-20T14:34:39.063Z,11.10
2023-10-20T14:37:08.943Z,11.70
2023-10-20T14:39:38.756Z,11.10
2023-10-20T14:42:07.176Z,11.50
2023-10-20T14:44:34.955Z,11.80
2023-10-20T14:47:02.591Z,11.10
2023-10-20T14:49:32.353Z,11.20
2023-10-20T14:52:01.496Z,11.20
2023-10-20T14:54:29.042Z,11.10
2023-10-20T14:56:59.069Z,11.30
2023-10-20T14:59:27.203Z,11.50
2023-10-20T15:01:57.183Z,11.30
2023-10-20T15:04:30.353Z,11.30
2023-10-20T15:06:58.738Z,11.40
2023-10-20T15:09:27.669Z,11.60
2023-10-20T15:11:55.333Z,11.50
2023-10-20T15:14:23.221Z,11.50
2023-10-20T15:16:51.858Z,11.30
2023-10-20T15:19:19.385Z,11.30
2023-10-20T15:21:49.092Z,11.50
2023-10-20T15:24:16.732Z,11.50
2023-10-20T15:26:47.703Z,11.50
2023-10-20T15:29:15.575Z,12.80
2023-10-20T15:31:43.328Z,11.40
2023-10-20T15:34:10.909Z,11.50
2023-10-20T15:36:53.337Z,11.80
2023-10-20T15:39:35.931Z,12.30
2023-10-20T15:42:13.521Z,12.10
2023-10-20T15:44:41.481Z,11.90
2023-10-20T15:47:11.728Z,11.40
2023-10-20T15:49:41.423Z,11.60
2023-10-20T15:52:09.408Z,11.50
2023-10-20T15:54:41.467Z,12.10
2023-10-20T15:57:11.563Z,11.50
2023-10-20T15:59:40.057Z,11.40
2023-10-20T16:02:08.154Z,12.00
2023-10-20T16:04:37.849Z,11.60
2023-10-20T16:07:05.405Z,11.40
2023-10-20T16:09:34.596Z,11.60
2023-10-20T16:12:05.187Z,11.50
2023-10-20T16:14:33.007Z,11.80
2023-10-20T16:17:00.556Z,11.60
2023-10-20T16:19:28.106Z,11.70
2023-10-20T16:21:55.898Z,11.50
2023-10-20T16:24:24.201Z,11.60
2023-10-20T16:26:54.716Z,11.60
2023-10-20T16:29:22.251Z,11.70
2023-10-20T16:31:49.867Z,11.60
2023-10-20T16:34:50.149Z,11.60
2023-10-20T16:37:21.060Z,11.80
2023-10-20T16:39:48.722Z,11.70
2023-10-20T16:42:16.265Z,11.70
2023-10-20T16:44:43.813Z,12.50
2023-10-20T16:47:11.331Z,11.80
2023-10-20T16:49:38.851Z,12.40
2023-10-20T16:52:06.636Z,11.80
2023-10-20T16:54:36.033Z,12.00
2023-10-20T16:57:03.935Z,11.80
2023-10-20T16:59:31.473Z,12.10
2023-10-20T17:01:59.219Z,11.90
2023-10-20T17:04:33.029Z,12.00
2023-10-20T17:07:00.707Z,12.20
2023-10-20T17:09:35.963Z,12.10
2023-10-20T17:12:04.670Z,12.20
2023-10-20T17:14:34.373Z,12.10
2023-10-20T17:17:05.036Z,12.30
2023-10-20T17:19:34.165Z,11.20
2023-10-20T17:22:02.032Z,12.20
2023-10-20T17:24:32.446Z,12.50
2023-10-20T17:27:00.173Z,12.20
2023-10-20T17:29:29.460Z,12.30
2023-10-20T17:31:57.433Z,12.30
2023-10-20T17:34:30.451Z,12.50
2023-10-20T17:36:58.857Z,12.40
2023-10-20T17:39:26.432Z,12.90
2023-10-20T17:41:57.188Z,13.20
2023-10-20T17:44:24.810Z,12.70
2023-10-20T17:46:52.254Z,12.60
2023-10-20T17:49:19.815Z,13.00
2023-10-20T17:51:47.288Z,11.20
2023-10-20T17:54:14.809Z,13.30
2023-10-20T17:56:42.608Z,13.00
2023-10-20T17:59:11.957Z,13.00
2023-10-20T18:01:39.723Z,13.30
2023-10-20T18:04:07.382Z,11.70
2023-10-20T18:06:37.183Z,13.20
2023-10-20T18:09:06.121Z,13.40
2023-10-20T18:11:33.828Z,13.30
2023-10-20T18:14:02.726Z,13.60
2023-10-20T18:16:32.716Z,13.50
2023-10-20T18:19:00.254Z,13.70
2023-10-20T18:21:29.018Z,13.50
2023-10-20T18:23:59.337Z,13.60
2023-10-20T18:26:28.276Z,13.90
2023-10-20T18:28:55.924Z,13.90
2023-10-20T18:31:26.905Z,13.70
2023-10-20T18:33:59.479Z,14.10
2023-10-20T18:36:27.444Z,13.70
2023-10-20T18:38:58.556Z,14.10
2023-10-20T18:41:26.455Z,13.80
2023-10-20T18:44:03.332Z,13.90
2023-10-20T18:46:33.948Z,14.10
2023-10-20T18:49:01.532Z,13.30
2023-10-20T18:51:30.100Z,14.40
2023-10-20T18:53:57.696Z,13.80
2023-10-20T18:56:25.292Z,13.80
2023-10-20T18:58:52.801Z,13.90
2023-10-20T19:01:20.570Z,14.20
2023-10-20T19:03:53.517Z,13.90
2023-10-20T19:06:21.647Z,14.20
2023-10-20T19:08:49.257Z,13.90
2023-10-20T19:11:16.939Z,13.90
2023-10-20T19:13:44.970Z,13.90
2023-10-20T19:16:12.848Z,14.30
2023-10-20T19:18:40.559Z,14.10
2023-10-20T19:21:10.511Z,14.40
2023-10-20T19:23:38.753Z,14.40
2023-10-20T19:26:11.682Z,13.90
2023-10-20T19:28:39.594Z,13.90
2023-10-20T19:31:11.090Z,13.90
2023-10-20T19:33:39.494Z,13.90
2023-10-20T19:36:09.364Z,13.80
2023-10-20T19:38:38.158Z,13.80
2023-10-20T19:41:07.996Z,13.80
2023-10-20T19:43:35.542Z,14.20
2023-10-20T19:46:04.376Z,13.80
2023-10-20T19:48:32.295Z,13.70
2023-10-20T19:51:08.739Z,14.10
2023-10-20T19:53:36.223Z,14.00
2023-10-20T19:56:03.908Z,13.70
2023-10-20T19:58:31.458Z,13.80
2023-10-20T20:01:01.160Z,13.70
2023-10-20T20:03:29.167Z,13.70
2023-10-20T20:05:56.978Z,13.80
2023-10-20T20:08:26.814Z,13.80
2023-10-20T20:10:54.222Z,13.80
2023-10-20T20:13:21.661Z,13.70
2023-10-20T20:15:49.272Z,13.80
2023-10-20T20:18:16.873Z,13.80
2023-10-20T20:20:45.862Z,13.70
2023-10-20T20:23:21.798Z,14.10
2023-10-20T20:26:03.832Z,13.70
2023-10-20T20:28:41.669Z,13.80
2023-10-20T20:31:17.348Z,13.70
2023-10-20T20:33:51.364Z,13.90
2023-10-20T20:36:24.884Z,13.80
2023-10-20T20:39:18.425Z,13.90
2023-10-20T20:41:52.095Z,14.70
2023-10-20T20:44:39.639Z,13.80
2023-10-20T20:47:27.550Z,13.70
2023-10-20T20:49:59.231Z,13.80
2023-10-20T20:52:45.414Z,13.80
2023-10-20T20:55:34.916Z,13.70
2023-10-20T20:58:26.720Z,14.00
2023-10-20T21:04:43.429Z,13.50
2023-10-20T21:07:28.556Z,12.40
2023-10-20T21:10:22.541Z,11.80
2023-10-20T21:13:09.360Z,13.90
2023-10-20T21:15:52.587Z,13.70
2023-10-20T21:18:38.861Z,13.60
2023-10-20T21:21:34.436Z,13.70
2023-10-20T21:22:18.229Z,13.80
2023-10-20T21:24:29.601Z,13.50
2023-10-20T21:27:47.131Z,13.70
2023-10-20T21:30:21.385Z,13.70
2023-10-20T21:32:54.911Z,13.80
2023-10-20T21:35:32.938Z,13.50
2023-10-20T21:38:22.834Z,11.90
2023-10-20T21:43:48.162Z,13.60
2023-10-20T21:46:49.496Z,13.60
2023-10-20T21:49:31.167Z,13.60
2023-10-20T21:52:24.237Z,14.80
2023-10-20T21:55:39.242Z,13.60
2023-10-20T21:58:33.797Z,13.80
2023-10-20T22:01:16.344Z,13.40
2023-10-20T22:04:16.142Z,13.30
2023-10-20T22:07:35.288Z,15.90
2023-10-20T22:10:16.635Z,13.60
2023-10-20T22:12:53.134Z,13.30
2023-10-20T22:18:23.224Z,12.40
2023-10-20T22:21:16.645Z,13.40
2023-10-20T22:24:16.091Z,11.40
2023-10-20T22:27:14.190Z,14.70
2023-10-20T22:29:53.936Z,13.40
2023-10-20T22:32:40.306Z,11.50
2023-10-20T22:35:13.256Z,13.50
2023-10-20T22:41:44.164Z,13.70
2023-10-20T22:44:57.220Z,13.10
2023-10-20T22:48:11.673Z,13.40
2023-10-20T22:54:08.536Z,13.00
2023-10-20T22:57:02.067Z,13.40
2023-10-20T22:59:48.227Z,13.50
2023-10-20T23:02:29.668Z,13.60
2023-10-20T23:05:09.346Z,13.10
2023-10-20T23:07:58.033Z,13.20
2023-10-20T23:10:34.470Z,13.10
2023-10-20T23:13:26.143Z,13.40
2023-10-20T23:16:22.081Z,12.20
2023-10-20T23:19:29.142Z,13.30
2023-10-20T23:22:13.811Z,12.70
2023-10-20T23:24:59.423Z,15.50
2023-10-20T23:27:42.158Z,13.10
2023-10-20T23:30:45.641Z,15.20
2023-10-20T23:33:27.925Z,15.70
2023-10-20T23:36:17.316Z,13.10
2023-10-20T23:39:23.283Z,14.10
2023-10-20T23:42:33.979Z,13.30
2023-10-20T23:45:22.369Z,13.20
2023-10-20T23:48:28.461Z,13.30
2023-10-20T23:51:20.649Z,13.50
2023-10-20T23:54:05.041Z,11.70
2023-10-20T23:56:40.240Z,12.20
2023-10-20T23:59:14.942Z,13.40
